Time;durP1;ratioP1;P1;durP2;ratioP2;P2;SDS_P1;SDS_P2;PMS_P1;PMS_P2;Temp;Humidity;BMP_temperature;BMP_pressure;BME280_temperature;BME280_humidity;BME280_pressure;Samples;Min_cycle;Max_cycle;Signal;HPM_P1;HPM_P2
2023/08/22 00:02:06;;;;;;;2.10;1.08;;;21.80;93.00;;;;;;6128370;23;20404;-78
2023/08/22 00:04:31;;;;;;;1.73;0.90;;;21.80;93.00;;;;;;6127793;23;20010;-80
2023/08/22 00:06:57;;;;;;;1.23;0.95;;;21.80;93.10;;;;;;6102411;23;20097;-80
2023/08/22 00:09:22;;;;;;;2.33;0.95;;;21.80;93.10;;;;;;6128409;23;20025;-80
2023/08/22 00:11:48;;;;;;;2.22;1.10;;;21.80;93.10;;;;;;6101435;23;20002;-80
2023/08/22 00:14:13;;;;;;;1.85;0.90;;;21.90;93.10;;;;;;6101826;23;20045;-80
2023/08/22 00:16:39;;;;;;;1.52;0.98;;;22.00;93.10;;;;;;6101629;23;20006;-80
2023/08/22 00:19:05;;;;;;;2.60;1.15;;;21.90;93.00;;;;;;6101801;23;20400;-79
2023/08/22 00:21:30;;;;;;;2.47;1.15;;;22.00;93.00;;;;;;6101583;23;20097;-80
2023/08/22 00:23:57;;;;;;;1.50;1.02;;;21.90;92.90;;;;;;6126877;23;20033;-80
2023/08/22 00:26:22;;;;;;;2.13;1.10;;;22.00;92.90;;;;;;6127105;23;20437;-80
2023/08/22 00:28:48;;;;;;;2.35;1.00;;;21.90;92.90;;;;;;6127203;23;20030;-79
2023/08/22 00:31:14;;;;;;;1.85;1.00;;;21.90;92.90;;;;;;6101116;23;20002;-79
2023/08/22 00:33:39;;;;;;;2.10;0.98;;;22.00;92.90;;;;;;6101000;23;20401;-80
2023/08/22 00:36:05;;;;;;;1.77;1.17;;;22.00;92.90;;;;;;6101393;23;20018;-80
2023/08/22 00:38:30;;;;;;;2.45;1.17;;;21.90;93.00;;;;;;6101504;23;20013;-80
2023/08/22 00:40:56;;;;;;;1.85;1.00;;;21.90;93.00;;;;;;6101150;23;20013;-80
2023/08/22 00:43:22;;;;;;;2.55;1.20;;;21.90;93.10;;;;;;6100653;23;20010;-79
2023/08/22 00:45:47;;;;;;;2.05;1.17;;;21.80;93.10;;;;;;6126871;23;20024;-79
2023/08/22 00:48:14;;;;;;;2.45;1.38;;;21.80;93.10;;;;;;6100954;23;20009;-81
2023/08/22 00:50:39;;;;;;;1.90;1.00;;;21.80;93.10;;;;;;6127539;23;20002;-80
2023/08/22 00:53:05;;;;;;;2.92;1.20;;;21.80;93.10;;;;;;6127410;23;20006;-79
2023/08/22 00:55:31;;;;;;;2.15;1.10;;;21.80;93.10;;;;;;6100799;23;20009;-79
2023/08/22 00:57:56;;;;;;;2.38;0.95;;;21.80;93.10;;;;;;6126418;23;20006;-79
2023/08/22 01:00:22;;;;;;;1.38;1.08;;;21.80;93.00;;;;;;6126848;23;20040;-80
2023/08/22 01:02:48;;;;;;;1.42;1.00;;;21.80;93.10;;;;;;6100394;23;20001;-79
2023/08/22 01:05:13;;;;;;;2.05;1.10;;;21.80;93.10;;;;;;6126502;23;20007;-79
2023/08/22 01:07:53;;;;;;;1.58;1.00;;;21.80;93.10;;;;;;6127125;23;20006;-80
2023/08/22 01:10:27;;;;;;;2.13;1.05;;;21.80;93.10;;;;;;6126706;23;20005;-79
2023/08/22 01:13:02;;;;;;;1.83;1.10;;;21.80;93.00;;;;;;6127690;23;20427;-80
2023/08/22 01:15:31;;;;;;;2.42;1.23;;;21.80;93.00;;;;;;6099700;23;20043;-79
2023/08/22 01:17:58;;;;;;;1.27;1.02;;;21.80;93.00;;;;;;6099904;23;20037;-80
2023/08/22 01:20:27;;;;;;;2.08;1.15;;;21.80;93.00;;;;;;6099955;23;20006;-79
2023/08/22 01:22:53;;;;;;;1.85;1.10;;;21.80;92.90;;;;;;6099922;23;20002;-79
2023/08/22 01:25:19;;;;;;;2.00;1.10;;;21.80;93.00;;;;;;6125615;23;20097;-79
2023/08/22 01:28:11;;;;;;;2.35;1.13;;;21.80;93.00;;;;;;6099888;23;20433;-79
2023/08/22 01:30:46;;;;;;;2.20;1.02;;;21.80;93.00;;;;;;6126100;23;20341;-79
2023/08/22 01:33:25;;;;;;;2.67;1.00;;;21.80;93.00;;;;;;6099478;23;20002;-79
2023/08/22 01:35:54;;;;;;;2.15;1.20;;;21.80;93.10;;;;;;6099940;23;20044;-79
2023/08/22 01:38:23;;;;;;;1.75;1.15;;;21.80;93.10;;;;;;6125531;23;20005;-80
2023/08/22 01:40:49;;;;;;;1.30;1.00;;;21.90;93.10;;;;;;6125801;23;20029;-79
2023/08/22 01:43:15;;;;;;;2.88;1.23;;;21.80;93.10;;;;;;6099700;23;20016;-79
2023/08/22 01:45:40;;;;;;;1.40;1.00;;;21.80;93.00;;;;;;6125134;23;20401;-79
2023/08/22 01:48:06;;;;;;;2.88;1.30;;;21.90;93.00;;;;;;6099636;23;20001;-79
2023/08/22 01:50:31;;;;;;;1.13;1.00;;;21.90;92.90;;;;;;6125330;23;20001;-79
2023/08/22 01:52:58;;;;;;;1.77;1.00;;;21.90;92.90;;;;;;6099537;23;20002;-80
2023/08/22 01:55:23;;;;;;;3.25;1.10;;;21.90;92.90;;;;;;6125278;23;20494;-78
2023/08/22 01:57:49;;;;;;;1.63;1.05;;;21.90;92.90;;;;;;6100199;23;20010;-80
2023/08/22 02:00:15;;;;;;;1.90;1.25;;;22.00;92.90;;;;;;6130649;23;19998;-80
2023/08/22 02:02:41;;;;;;;1.58;1.00;;;21.90;92.90;;;;;;6103171;23;20342;-80
2023/08/22 02:05:07;;;;;;;2.22;1.10;;;21.90;92.90;;;;;;6103526;23;20002;-80
2023/08/22 02:07:34;;;;;;;2.08;1.10;;;21.90;93.00;;;;;;6103752;23;20012;-79
2023/08/22 02:10:00;;;;;;;2.10;1.13;;;21.90;93.00;;;;;;6100674;23;20002;-80
2023/08/22 02:12:26;;;;;;;2.38;1.20;;;21.80;93.10;;;;;;6129636;23;20006;-80
2023/08/22 02:14:53;;;;;;;2.35;1.00;;;21.80;93.10;;;;;;6102801;23;20345;-80
2023/08/22 02:17:19;;;;;;;2.50;1.23;;;21.80;93.00;;;;;;6130098;23;20006;-80
2023/08/22 02:19:44;;;;;;;2.55;1.05;;;21.80;93.10;;;;;;6107697;23;20006;-80
2023/08/22 02:22:10;;;;;;;2.55;1.20;;;21.80;93.10;;;;;;6131564;23;20013;-80
2023/08/22 02:24:35;;;;;;;1.67;1.10;;;21.80;93.10;;;;;;6105652;23;20493;-80
2023/08/22 02:27:03;;;;;;;2.45;1.20;;;21.70;93.00;;;;;;6105516;23;20006;-80
2023/08/22 02:29:29;;;;;;;2.00;1.20;;;21.70;93.00;;;;;;6105193;23;20002;-80
2023/08/22 02:31:55;;;;;;;1.65;1.10;;;21.80;93.00;;;;;;6130697;23;20009;-80
2023/08/22 02:34:21;;;;;;;1.90;1.05;;;21.70;93.00;;;;;;6130235;23;19998;-80
2023/08/22 02:36:47;;;;;;;1.92;1.10;;;21.70;93.10;;;;;;6104504;23;20013;-80
2023/08/22 02:39:13;;;;;;;1.67;1.20;;;21.70;93.10;;;;;;6104472;23;20341;-80
2023/08/22 02:41:39;;;;;;;1.38;1.00;;;21.80;93.10;;;;;;6103911;23;20006;-80
2023/08/22 02:44:04;;;;;;;2.05;1.27;;;21.80;93.00;;;;;;6103863;23;20084;-80
2023/08/22 02:46:30;;;;;;;1.90;1.30;;;21.70;93.00;;;;;;6103595;23;20006;-80
2023/08/22 02:48:56;;;;;;;1.73;1.10;;;21.70;93.00;;;;;;6103559;23;20006;-79
2023/08/22 02:51:21;;;;;;;2.05;1.20;;;21.80;93.00;;;;;;6129299;23;20002;-80
2023/08/22 02:53:47;;;;;;;2.55;1.20;;;21.70;93.00;;;;;;6129114;23;20002;-80
2023/08/22 02:56:12;;;;;;;2.28;1.17;;;21.70;92.90;;;;;;6102172;23;20065;-79
2023/08/22 02:58:38;;;;;;;1.30;1.00;;;21.80;93.00;;;;;;6102110;23;20010;-80
2023/08/22 03:01:04;;;;;;;1.90;1.00;;;21.70;93.00;;;;;;6102144;23;20002;-80
2023/08/22 03:03:31;;;;;;;1.85;1.10;;;21.70;93.00;;;;;;6101516;23;20067;-80
2023/08/22 03:06:00;;;;;;;2.25;1.30;;;21.80;93.00;;;;;;6102435;23;20037;-80
2023/08/22 03:08:27;;;;;;;2.53;1.30;;;21.80;93.10;;;;;;6101042;23;20033;-79
2023/08/22 03:10:52;;;;;;;2.05;1.30;;;21.90;93.10;;;;;;6127122;23;20005;-80
2023/08/22 03:13:18;;;;;;;1.85;1.10;;;21.80;93.00;;;;;;6100716;23;20006;-80
2023/08/22 03:15:45;;;;;;;1.73;1.10;;;21.90;93.00;;;;;;6100394;23;20013;-80
2023/08/22 03:18:11;;;;;;;1.60;1.20;;;21.80;92.90;;;;;;6100823;23;20010;-80
2023/08/22 03:20:36;;;;;;;2.95;1.50;;;21.80;92.90;;;;;;6100891;23;20088;-79
2023/08/22 03:23:04;;;;;;;2.13;1.20;;;21.80;92.90;;;;;;6095893;23;20108;-78
2023/08/22 03:25:30;;;;;;;2.70;1.20;;;21.80;92.90;;;;;;6092876;23;20084;-77
2023/08/22 03:27:56;;;;;;;1.95;1.20;;;21.90;92.90;;;;;;6093642;23;20058;-77
2023/08/22 03:30:21;;;;;;;1.95;1.20;;;21.90;92.90;;;;;;6094008;23;20017;-77
2023/08/22 03:32:47;;;;;;;2.45;1.35;;;21.80;92.90;;;;;;6089090;23;20005;-77
2023/08/22 03:35:13;;;;;;;1.95;1.10;;;21.80;93.00;;;;;;6091116;23;20275;-77
2023/08/22 03:37:40;;;;;;;2.55;1.30;;;21.80;93.00;;;;;;6092295;23;20014;-77
2023/08/22 03:40:07;;;;;;;2.28;1.50;;;21.80;93.10;;;;;;6093865;23;20077;-76
2023/08/22 03:42:32;;;;;;;3.08;1.40;;;21.80;93.10;;;;;;6093680;23;20021;-77
2023/08/22 03:44:58;;;;;;;2.75;1.20;;;21.80;93.10;;;;;;6094251;23;20356;-76
2023/08/22 03:47:24;;;;;;;2.08;1.35;;;21.80;93.10;;;;;;6094066;23;20006;-77
2023/08/22 03:49:50;;;;;;;3.55;1.35;;;21.70;93.00;;;;;;6093660;23;20006;-77
2023/08/22 03:52:16;;;;;;;2.35;1.40;;;21.80;93.00;;;;;;6092551;23;20010;-76
2023/08/22 03:54:42;;;;;;;2.47;1.40;;;21.70;93.00;;;;;;6091498;23;20005;-77
2023/08/22 03:57:08;;;;;;;1.98;1.33;;;21.80;93.00;;;;;;6094986;23;20016;-77
2023/08/22 03:59:33;;;;;;;1.85;1.20;;;21.70;93.00;;;;;;6090339;23;20013;-77
2023/08/22 04:01:59;;;;;;;2.85;1.50;;;21.70;93.00;;;;;;6092805;23;20033;-77
2023/08/22 04:04:25;;;;;;;2.15;1.25;;;21.70;93.00;;;;;;6093409;23;20013;-76
2023/08/22 04:06:50;;;;;;;1.77;1.20;;;21.70;93.00;;;;;;6093033;23;20010;-78
2023/08/22 04:09:16;;;;;;;2.63;1.20;;;21.70;93.00;;;;;;6094300;23;20081;-79
2023/08/22 04:11:43;;;;;;;2.03;1.30;;;21.70;93.00;;;;;;6097110;23;20512;-78
2023/08/22 04:14:09;;;;;;;1.75;1.20;;;21.70;93.00;;;;;;6097015;23;20508;-76
2023/08/22 04:16:35;;;;;;;2.22;1.40;;;21.70;93.00;;;;;;6095697;23;20052;-76
2023/08/22 04:19:00;;;;;;;2.20;1.30;;;21.70;93.00;;;;;;6092751;23;20156;-77
2023/08/22 04:21:26;;;;;;;2.60;1.30;;;21.70;93.00;;;;;;6092712;23;20010;-76
2023/08/22 04:23:52;;;;;;;2.75;1.40;;;21.70;93.00;;;;;;6093658;23;20014;-80
2023/08/22 04:26:17;;;;;;;2.10;1.20;;;21.80;93.00;;;;;;6094658;23;20604;-78
2023/08/22 04:28:43;;;;;;;2.90;1.50;;;21.70;93.00;;;;;;6120724;23;20503;-79
2023/08/22 04:31:08;;;;;;;1.63;1.27;;;21.80;93.00;;;;;;6094229;23;20052;-77
2023/08/22 04:33:34;;;;;;;2.60;1.40;;;21.70;93.00;;;;;;6093810;23;20006;-79
2023/08/22 04:35:59;;;;;;;2.05;1.20;;;21.80;93.00;;;;;;6094360;23;20456;-77
2023/08/22 04:38:25;;;;;;;1.90;1.20;;;21.80;93.00;;;;;;6119299;23;20017;-79
2023/08/22 04:40:50;;;;;;;2.15;1.40;;;21.80;93.00;;;;;;6093820;23;20014;-78
2023/08/22 04:43:16;;;;;;;2.58;1.25;;;21.80;92.90;;;;;;6094220;23;20006;-77
2023/08/22 04:45:42;;;;;;;1.75;1.23;;;21.80;92.90;;;;;;6094388;23;20053;-77
2023/08/22 04:48:07;;;;;;;2.03;1.40;;;21.80;92.90;;;;;;6120688;23;20009;-78
2023/08/22 04:50:33;;;;;;;2.47;1.38;;;21.90;92.90;;;;;;6094214;23;20006;-78
2023/08/22 04:52:58;;;;;;;2.47;1.30;;;21.80;92.80;;;;;;6094836;23;20424;-77
2023/08/22 04:55:24;;;;;;;2.85;1.50;;;21.80;92.80;;;;;;6094753;23;20436;-79
2023/08/22 04:57:49;;;;;;;1.98;1.27;;;21.80;92.80;;;;;;6121033;23;20012;-76
2023/08/22 05:00:16;;;;;;;2.05;1.30;;;21.80;92.90;;;;;;6096776;23;20009;-78
2023/08/22 05:02:42;;;;;;;2.53;1.30;;;21.80;92.90;;;;;;6095355;23;20021;-78
2023/08/22 05:05:10;;;;;;;2.22;1.30;;;21.80;92.90;;;;;;6096345;23;20344;-78
2023/08/22 05:07:35;;;;;;;2.70;1.42;;;21.80;93.00;;;;;;6094559;23;20445;-78
2023/08/22 05:10:02;;;;;;;2.17;1.20;;;21.80;93.00;;;;;;6095640;23;20005;-78
2023/08/22 05:12:27;;;;;;;4.97;1.50;;;21.70;93.00;;;;;;6095481;23;20010;-79
2023/08/22 05:14:53;;;;;;;2.78;1.58;;;21.80;93.00;;;;;;6096142;23;20345;-78
2023/08/22 05:17:18;;;;;;;3.20;1.30;;;21.70;92.90;;;;;;6095856;23;20002;-78
2023/08/22 05:19:44;;;;;;;2.35;1.30;;;21.70;92.90;;;;;;6096306;23;20006;-79
2023/08/22 05:22:10;;;;;;;2.80;1.52;;;21.70;92.90;;;;;;6098988;23;20492;-77
2023/08/22 05:24:36;;;;;;;3.42;1.73;;;21.70;92.90;;;;;;6122549;23;20057;-79
2023/08/22 05:27:01;;;;;;;2.63;1.48;;;21.70;92.90;;;;;;6095238;23;20017;-76
2023/08/22 05:29:27;;;;;;;3.75;1.60;;;21.70;92.90;;;;;;6120098;23;20009;-77
2023/08/22 05:31:53;;;;;;;2.83;1.60;;;21.60;92.90;;;;;;6093983;23;20014;-77
2023/08/22 05:34:18;;;;;;;3.53;1.60;;;21.70;92.90;;;;;;6119662;23;20006;-78
2023/08/22 05:36:44;;;;;;;6.10;1.63;;;21.70;92.80;;;;;;6093892;23;20010;-77
2023/08/22 05:39:10;;;;;;;5.57;1.83;;;21.70;92.80;;;;;;6094033;23;20014;-78
2023/08/22 05:41:36;;;;;;;5.40;1.83;;;21.70;92.70;;;;;;6120175;23;20060;-79
2023/08/22 05:44:02;;;;;;;4.20;1.98;;;21.70;92.70;;;;;;6123618;23;20013;-79
2023/08/22 05:46:28;;;;;;;6.57;2.20;;;21.70;92.60;;;;;;6103436;23;20085;-79
2023/08/22 05:48:53;;;;;;;5.38;2.20;;;21.80;92.60;;;;;;6103039;23;20017;-79
2023/08/22 05:51:19;;;;;;;5.18;1.98;;;21.80;92.60;;;;;;6101743;23;20037;-79
2023/08/22 05:53:44;;;;;;;4.80;2.00;;;21.70;92.60;;;;;;6100405;23;20005;-79
2023/08/22 05:56:10;;;;;;;4.20;1.80;;;21.70;92.60;;;;;;6124956;23;20212;-78
2023/08/22 05:58:35;;;;;;;3.88;1.90;;;21.70;92.60;;;;;;6127241;23;20041;-78
2023/08/22 06:01:09;;;;;;;2.78;1.80;;;21.90;92.70;;;;;;6126989;23;20002;-79
2023/08/22 06:03:36;;;;;;;5.15;1.90;;;21.70;92.60;;;;;;6100223;23;20006;-78
2023/08/22 06:06:01;;;;;;;5.80;1.83;;;21.80;92.60;;;;;;6126341;23;19998;-78
2023/08/22 06:08:27;;;;;;;4.72;1.90;;;21.80;92.60;;;;;;6125512;23;20008;-78
2023/08/22 06:10:53;;;;;;;4.05;1.90;;;21.90;92.60;;;;;;6100106;23;19998;-78
2023/08/22 06:13:18;;;;;;;3.25;1.88;;;21.90;92.50;;;;;;6099758;23;20030;-78
2023/08/22 06:15:43;;;;;;;3.40;1.83;;;21.90;92.30;;;;;;6099392;23;20005;-78
2023/08/22 06:18:09;;;;;;;6.63;1.90;;;21.90;92.20;;;;;;6125719;23;20006;-78
2023/08/22 06:20:38;;;;;;;3.38;1.92;;;22.00;92.20;;;;;;6099382;23;20030;-78
2023/08/22 06:23:05;;;;;;;3.08;1.90;;;22.00;92.10;;;;;;6125457;23;20009;-78
2023/08/22 06:25:31;;;;;;;4.00;1.95;;;22.00;92.00;;;;;;6098919;23;20385;-78
2023/08/22 06:27:57;;;;;;;4.32;1.95;;;22.10;92.00;;;;;;6099475;23;20002;-78
2023/08/22 06:30:22;;;;;;;4.20;1.83;;;22.10;92.00;;;;;;6125336;23;20009;-78
2023/08/22 06:32:48;;;;;;;3.50;1.85;;;22.10;91.90;;;;;;6124995;23;20069;-78
2023/08/22 06:35:13;;;;;;;3.40;1.70;;;22.10;91.90;;;;;;6099106;23;20002;-78
2023/08/22 06:37:39;;;;;;;5.13;2.00;;;22.10;91.90;;;;;;6099229;23;20009;-78
2023/08/22 06:40:05;;;;;;;3.63;1.77;;;22.10;91.90;;;;;;6099298;23;20010;-78
2023/08/22 06:42:31;;;;;;;4.03;2.03;;;22.10;91.90;;;;;;6099215;23;20033;-78
2023/08/22 06:44:57;;;;;;;3.05;1.77;;;22.10;91.90;;;;;;6099173;23;20068;-78
2023/08/22 06:47:23;;;;;;;3.08;1.65;;;22.10;91.90;;;;;;6100010;23;20090;-78
2023/08/22 06:49:48;;;;;;;3.85;1.80;;;22.10;91.90;;;;;;6124644;23;20377;-78
2023/08/22 06:52:14;;;;;;;2.83;1.63;;;22.10;91.80;;;;;;6124514;23;19998;-78
2023/08/22 06:54:40;;;;;;;3.65;1.83;;;22.10;91.80;;;;;;6123709;23;20318;-78
2023/08/22 06:57:06;;;;;;;3.47;1.80;;;22.20;91.80;;;;;;6125311;23;20012;-78
2023/08/22 06:59:31;;;;;;;4.50;1.92;;;22.20;91.80;;;;;;6099173;23;20033;-78
2023/08/22 07:01:58;;;;;;;4.55;1.70;;;22.20;91.70;;;;;;6097928;23;20409;-78
2023/08/22 07:04:23;;;;;;;3.70;1.77;;;22.20;91.70;;;;;;6098710;23;20090;-78
2023/08/22 07:06:49;;;;;;;4.60;1.75;;;22.20;91.70;;;;;;6125101;23;20042;-78
2023/08/22 07:09:15;;;;;;;2.95;1.60;;;22.20;91.60;;;;;;6098823;23;20029;-78
2023/08/22 07:11:40;;;;;;;4.07;1.80;;;22.30;91.60;;;;;;6099412;23;20452;-78
2023/08/22 07:14:06;;;;;;;3.22;1.55;;;22.30;91.60;;;;;;6101455;23;20009;-78
2023/08/22 07:16:31;;;;;;;3.00;1.65;;;22.30;91.60;;;;;;6100967;23;20009;-78
2023/08/22 07:18:57;;;;;;;2.75;1.63;;;22.30;91.60;;;;;;6101055;23;20014;-78
2023/08/22 07:21:22;;;;;;;3.45;1.70;;;22.30;91.50;;;;;;6100923;23;20001;-78
2023/08/22 07:23:48;;;;;;;3.60;1.70;;;22.30;91.60;;;;;;6100697;23;20029;-78
2023/08/22 07:26:13;;;;;;;3.40;1.50;;;22.30;91.60;;;;;;6126541;23;20133;-78
2023/08/22 07:28:39;;;;;;;3.63;1.60;;;22.30;91.70;;;;;;6126676;23;20053;-78
2023/08/22 07:31:05;;;;;;;2.80;1.63;;;22.30;91.80;;;;;;6100868;23;20002;-78
2023/08/22 07:33:31;;;;;;;2.92;1.65;;;22.30;91.70;;;;;;6100382;23;20002;-77
2023/08/22 07:35:57;;;;;;;3.17;1.52;;;22.30;91.70;;;;;;6126634;23;20013;-78
2023/08/22 07:38:22;;;;;;;3.25;1.67;;;22.30;91.60;;;;;;6100799;23;20001;-78
2023/08/22 07:40:48;;;;;;;2.33;1.50;;;22.40;91.60;;;;;;6126584;23;20005;-78
2023/08/22 07:43:13;;;;;;;3.45;1.77;;;22.40;91.60;;;;;;6126711;23;20002;-78
2023/08/22 07:45:39;;;;;;;4.88;1.70;;;22.40;91.50;;;;;;6100343;23;20014;-78
2023/08/22 07:48:05;;;;;;;4.20;1.80;;;22.50;91.40;;;;;;6126626;23;20006;-78
2023/08/22 07:50:30;;;;;;;3.45;1.75;;;22.50;91.40;;;;;;6126614;23;19998;-78
2023/08/22 07:52:57;;;;;;;2.50;1.70;;;22.50;91.40;;;;;;6126586;23;20013;-78
2023/08/22 07:55:23;;;;;;;2.97;1.58;;;22.40;91.40;;;;;;6126102;23;20002;-78
2023/08/22 07:57:50;;;;;;;3.22;1.83;;;22.40;91.40;;;;;;6100591;23;20006;-78
2023/08/22 08:00:16;;;;;;;3.15;1.63;;;22.40;91.40;;;;;;6100754;23;20088;-78
2023/08/22 08:02:41;;;;;;;2.83;1.70;;;22.40;91.50;;;;;;6100310;23;20002;-78
2023/08/22 08:05:07;;;;;;;2.72;1.58;;;22.40;91.80;;;;;;6100383;23;20068;-78
2023/08/22 08:07:34;;;;;;;3.60;1.83;;;22.40;91.60;;;;;;6099782;23;20005;-77
2023/08/22 08:10:00;;;;;;;3.28;1.60;;;22.30;91.70;;;;;;6100494;23;20012;-78
2023/08/22 08:12:25;;;;;;;2.25;1.67;;;22.30;91.70;;;;;;6100247;23;20005;-78
2023/08/22 08:14:51;;;;;;;3.53;1.73;;;22.30;91.70;;;;;;6100919;23;20006;-79
2023/08/22 08:17:18;;;;;;;3.08;1.50;;;22.30;91.70;;;;;;6127344;23;20081;-78
2023/08/22 08:19:44;;;;;;;2.22;1.40;;;22.30;92.00;;;;;;6127127;23;20025;-78
2023/08/22 08:22:11;;;;;;;3.08;1.50;;;22.30;91.90;;;;;;6101497;23;20067;-78
2023/08/22 08:24:37;;;;;;;3.35;1.60;;;22.30;91.90;;;;;;6101132;23;20475;-78
2023/08/22 08:27:02;;;;;;;3.35;1.70;;;22.20;91.90;;;;;;6101801;23;20010;-78
2023/08/22 08:29:28;;;;;;;2.78;1.30;;;22.20;91.90;;;;;;6101702;23;20016;-78
2023/08/22 08:31:56;;;;;;;2.30;1.60;;;22.20;91.90;;;;;;6101332;23;20002;-78
2023/08/22 08:34:22;;;;;;;2.88;1.58;;;22.20;91.90;;;;;;6128732;23;20025;-79
2023/08/22 08:36:48;;;;;;;3.90;1.85;;;22.30;92.00;;;;;;6129502;23;20476;-79
2023/08/22 08:39:14;;;;;;;2.45;1.52;;;22.20;91.90;;;;;;6102960;23;20002;-78
2023/08/22 08:41:48;;;;;;;2.30;1.48;;;22.20;91.90;;;;;;6128491;23;20025;-78
2023/08/22 08:44:15;;;;;;;2.55;1.50;;;22.20;92.00;;;;;;6102588;23;20322;-79
2023/08/22 08:46:42;;;;;;;3.97;1.80;;;22.20;92.00;;;;;;6101926;23;20429;-79
2023/08/22 08:49:09;;;;;;;2.88;1.52;;;22.20;92.00;;;;;;6127763;23;20013;-79
2023/08/22 08:51:35;;;;;;;2.70;1.65;;;22.20;92.00;;;;;;6127921;23;20005;-78
2023/08/22 08:54:01;;;;;;;3.10;1.60;;;22.20;92.00;;;;;;6101461;23;19998;-78
2023/08/22 08:56:27;;;;;;;2.40;1.58;;;22.20;92.00;;;;;;6102359;23;20006;-78
2023/08/22 08:58:53;;;;;;;1.90;1.50;;;22.20;92.00;;;;;;6100846;23;20013;-78
2023/08/22 09:01:18;;;;;;;2.00;1.58;;;22.20;92.00;;;;;;6127164;23;20345;-78
2023/08/22 09:03:44;;;;;;;2.72;1.60;;;22.30;92.00;;;;;;6099952;23;20006;-79
2023/08/22 09:06:10;;;;;;;3.95;1.77;;;22.30;91.90;;;;;;6100089;23;20010;-78
2023/08/22 09:08:35;;;;;;;2.50;1.58;;;22.30;91.90;;;;;;6099696;23;20006;-79
2023/08/22 09:11:01;;;;;;;1.80;1.25;;;22.30;91.80;;;;;;6100503;23;20002;-79
2023/08/22 09:13:30;;;;;;;2.00;1.30;;;22.30;91.80;;;;;;6100052;23;20464;-78
2023/08/22 09:16:00;;;;;;;2.40;1.30;;;22.40;91.90;;;;;;6100345;23;20014;-79
2023/08/22 09:18:29;;;;;;;2.88;1.60;;;22.40;91.70;;;;;;6099969;23;20088;-78
2023/08/22 09:21:04;;;;;;;2.80;1.50;;;22.40;91.60;;;;;;6100021;23;20319;-78
2023/08/22 09:23:31;;;;;;;3.03;1.60;;;22.40;91.60;;;;;;6099561;23;20468;-78
2023/08/22 09:25:57;;;;;;;2.50;1.40;;;22.40;91.60;;;;;;6099656;23;20010;-78
2023/08/22 09:28:22;;;;;;;3.22;1.75;;;22.40;91.60;;;;;;6099772;23;20006;-78
2023/08/22 09:30:49;;;;;;;1.75;1.40;;;22.40;91.50;;;;;;6099744;23;20363;-78
2023/08/22 09:33:16;;;;;;;2.70;1.52;;;22.50;91.50;;;;;;6099486;23;20002;-78
2023/08/22 09:35:42;;;;;;;2.33;1.50;;;22.40;91.50;;;;;;6098874;23;20010;-78
2023/08/22 09:38:09;;;;;;;2.97;1.40;;;22.40;91.50;;;;;;6125612;23;20384;-78
2023/08/22 09:40:35;;;;;;;2.97;1.38;;;22.40;91.60;;;;;;6099444;23;20002;-78
2023/08/22 09:43:02;;;;;;;2.45;1.40;;;22.40;91.60;;;;;;6125461;23;20013;-78
2023/08/22 09:45:28;;;;;;;2.30;1.42;;;22.40;91.60;;;;;;6099096;23;20009;-79
2023/08/22 09:47:57;;;;;;;2.30;1.42;;;22.40;91.60;;;;;;6099633;23;20093;-78
2023/08/22 09:50:26;;;;;;;2.40;1.40;;;22.40;91.60;;;;;;6099552;23;20006;-78
2023/08/22 09:52:53;;;;;;;2.55;1.55;;;22.40;91.60;;;;;;6099672;23;20109;-78
2023/08/22 09:55:20;;;;;;;3.38;1.55;;;22.40;91.60;;;;;;6099273;23;20330;-78
2023/08/22 09:57:46;;;;;;;2.47;1.33;;;22.40;91.60;;;;;;6125853;23;20017;-78
2023/08/22 10:00:13;;;;;;;2.35;1.50;;;22.40;91.60;;;;;;6125588;23;20053;-79
2023/08/22 10:02:40;;;;;;;2.22;1.50;;;22.40;91.70;;;;;;6099558;23;20016;-78
2023/08/22 10:05:07;;;;;;;2.80;1.67;;;22.40;91.70;;;;;;6099608;23;20033;-78
2023/08/22 10:07:32;;;;;;;2.33;1.40;;;22.40;91.80;;;;;;6099210;23;20009;-77
2023/08/22 10:09:58;;;;;;;1.80;1.30;;;22.40;91.80;;;;;;6099477;23;20006;-79
2023/08/22 10:12:25;;;;;;;1.85;1.30;;;22.40;91.90;;;;;;6099625;23;20025;-78
2023/08/22 10:14:56;;;;;;;3.25;1.70;;;22.40;91.90;;;;;;6099331;23;20030;-79
2023/08/22 10:17:25;;;;;;;;;;;22.30;91.90;;;;;;6125923;23;20002;-78
2023/08/22 10:19:50;;;;;;;2.90;1.38;;;22.30;91.90;;;;;;6099299;23;19901;-78
2023/08/22 10:22:16;;;;;;;2.33;1.38;;;22.30;92.00;;;;;;6099699;23;20471;-77
2023/08/22 10:24:42;;;;;;;2.38;1.40;;;22.30;92.00;;;;;;6125313;23;20344;-78
2023/08/22 10:27:12;;;;;;;2.47;1.40;;;22.30;92.00;;;;;;6125636;23;20013;-78
2023/08/22 10:29:41;;;;;;;2.10;1.35;;;22.30;92.00;;;;;;6099306;23;20223;-78
2023/08/22 10:32:07;;;;;;;2.13;1.40;;;22.30;92.00;;;;;;6125592;23;20365;-78
2023/08/22 10:34:38;;;;;;;1.77;1.30;;;22.30;92.00;;;;;;6098776;23;20009;-78
2023/08/22 10:37:13;;;;;;;2.47;1.40;;;22.40;92.00;;;;;;6099115;23;20396;-78
2023/08/22 10:39:40;;;;;;;2.50;1.40;;;22.30;91.90;;;;;;6099088;23;20093;-78
2023/08/22 10:42:26;;;;;;;2.50;1.42;;;22.40;91.80;;;;;;6099519;23;20092;-78
2023/08/22 10:44:57;;;;;;;2.30;1.42;;;22.40;91.80;;;;;;6124356;23;20072;-78
2023/08/22 10:47:24;;;;;;;1.52;1.25;;;22.40;91.70;;;;;;6100029;23;20437;-78
2023/08/22 10:49:51;;;;;;;2.38;1.50;;;22.40;91.60;;;;;;6126860;23;20002;-78
2023/08/22 10:52:23;;;;;;;2.22;1.30;;;22.50;91.60;;;;;;6101303;23;19998;-78
2023/08/22 10:55:10;;;;;;;3.03;1.92;;;22.50;91.60;;;;;;6126768;23;20002;-78
2023/08/22 10:57:47;;;;;;;2.38;1.30;;;22.50;91.60;;;;;;6127075;23;20013;-78
2023/08/22 11:00:19;;;;;;;2.28;1.42;;;22.50;91.50;;;;;;6127259;23;20006;-78
2023/08/22 11:02:45;;;;;;;2.15;1.40;;;22.50;91.50;;;;;;6100886;23;20081;-78
2023/08/22 11:05:13;;;;;;;1.80;1.20;;;22.50;91.60;;;;;;6100890;23;20010;-78
2023/08/22 11:07:40;;;;;;;2.88;1.48;;;22.50;91.60;;;;;;6100383;23;20009;-78
2023/08/22 11:10:14;;;;;;;2.10;1.30;;;22.50;91.60;;;;;;6100988;23;20040;-78
2023/08/22 11:12:41;;;;;;;2.38;1.40;;;22.40;91.60;;;;;;6100996;23;20349;-78
2023/08/22 11:15:07;;;;;;;1.40;1.23;;;22.40;91.70;;;;;;6126654;23;20005;-78
2023/08/22 11:17:32;;;;;;;1.83;1.20;;;22.40;91.70;;;;;;6100647;23;20101;-78
2023/08/22 11:19:58;;;;;;;2.88;1.50;;;22.40;91.70;;;;;;6101323;23;20006;-78
2023/08/22 11:22:24;;;;;;;2.03;1.38;;;22.40;91.80;;;;;;6101094;23;20002;-78
2023/08/22 11:24:51;;;;;;;2.58;1.63;;;22.40;91.70;;;;;;6126379;23;20038;-78
2023/08/22 11:27:18;;;;;;;2.05;1.35;;;22.50;91.80;;;;;;6127864;23;19998;-78
2023/08/22 11:29:53;;;;;;;1.88;1.23;;;22.50;91.70;;;;;;6127113;23;20094;-78
2023/08/22 11:32:23;;;;;;;2.17;1.20;;;22.50;91.70;;;;;;6101065;23;20002;-78
2023/08/22 11:34:54;;;;;;;1.83;1.23;;;22.50;91.70;;;;;;6100567;23;20451;-78
2023/08/22 11:37:21;;;;;;;1.85;1.40;;;22.40;91.70;;;;;;6127262;23;20002;-78
2023/08/22 11:39:50;;;;;;;1.48;1.17;;;22.40;91.70;;;;;;6127191;23;20006;-78
2023/08/22 11:42:17;;;;;;;3.17;1.30;;;22.50;91.70;;;;;;6127298;23;20005;-78
2023/08/22 11:45:04;;;;;;;2.95;1.65;;;22.50;91.70;;;;;;6100627;23;20097;-78
2023/08/22 11:47:47;;;;;;;1.88;1.33;;;22.50;91.70;;;;;;6101140;23;20006;-78
2023/08/22 11:50:20;;;;;;;2.08;1.30;;;22.50;91.70;;;;;;6127547;23;20311;-79
2023/08/22 11:52:48;;;;;;;2.30;1.30;;;22.50;91.70;;;;;;6101456;23;20009;-78
2023/08/22 11:55:25;;;;;;;2.08;1.30;;;22.50;91.70;;;;;;6127193;23;20006;-79
2023/08/22 11:57:54;;;;;;;1.75;1.30;;;22.50;91.70;;;;;;6127583;23;20006;-78
2023/08/22 12:00:20;;;;;;;1.70;1.30;;;22.50;91.70;;;;;;6127196;23;20020;-78
2023/08/22 12:02:53;;;;;;;2.65;1.60;;;22.60;91.70;;;;;;6101332;23;20133;-78
2023/08/22 12:05:39;;;;;;;1.60;1.27;;;22.60;91.60;;;;;;6126536;23;20033;-78
2023/08/22 12:08:11;;;;;;;3.53;1.60;;;22.60;91.60;;;;;;6100378;23;20010;-79
2023/08/22 12:10:44;;;;;;;1.95;1.30;;;22.60;91.50;;;;;;6100603;23;20081;-78
2023/08/22 12:13:11;;;;;;;1.98;1.33;;;22.60;91.50;;;;;;6100859;23;20040;-78
2023/08/22 12:15:37;;;;;;;2.58;1.50;;;22.60;91.40;;;;;;6100356;23;20384;-78
2023/08/22 12:18:04;;;;;;;2.15;1.40;;;22.70;91.40;;;;;;6100719;23;20017;-78
2023/08/22 12:20:30;;;;;;;1.95;1.30;;;22.70;91.40;;;;;;6126571;23;20009;-79
2023/08/22 12:22:56;;;;;;;2.10;1.40;;;22.70;91.30;;;;;;6126350;23;20077;-78
2023/08/22 12:25:21;;;;;;;2.28;1.35;;;22.70;91.30;;;;;;6126421;23;20041;-78
2023/08/22 12:27:47;;;;;;;2.33;1.33;;;22.70;91.30;;;;;;6100462;23;20042;-78
2023/08/22 12:30:13;;;;;;;1.30;1.20;;;22.70;91.20;;;;;;6126311;23;20002;-78
2023/08/22 12:32:41;;;;;;;2.05;1.20;;;22.70;91.30;;;;;;6100128;23;20069;-78
2023/08/22 12:35:10;;;;;;;1.63;1.30;;;22.70;91.20;;;;;;6125989;23;20318;-78
2023/08/22 12:37:36;;;;;;;2.00;1.38;;;22.70;91.30;;;;;;6100233;23;20009;-79
2023/08/22 12:40:03;;;;;;;2.05;1.50;;;22.70;91.30;;;;;;6100327;23;20100;-78
2023/08/22 12:42:28;;;;;;;2.00;1.40;;;22.60;91.40;;;;;;6100110;23;20032;-78
2023/08/22 12:44:54;;;;;;;1.75;1.30;;;22.70;91.50;;;;;;6099790;23;20010;-78
2023/08/22 12:47:20;;;;;;;2.28;1.20;;;22.60;91.50;;;;;;6100676;23;20013;-78